sensor_id;sensor_type;location;lat;lon;timestamp;temperature;humidity
29341;DHT22;16337;59.536;13.468;2023-02-01T00:01:55;-1.20;99.90
29341;DHT22;16337;59.536;13.468;2023-02-01T00:04:21;-1.20;99.90
29341;DHT22;16337;59.536;13.468;2023-02-01T00:06:47;-1.20;99.90
29341;DHT22;16337;59.536;13.468;2023-02-01T00:09:13;-1.20;99.90
29341;DHT22;16337;59.536;13.468;2023-02-01T00:11:39;-1.20;99.90
29341;DHT22;16337;59.536;13.468;2023-02-01T00:14:06;-1.20;99.90
29341;DHT22;16337;59.536;13.468;2023-02-01T00:16:31;-1.20;99.90
29341;DHT22;16337;59.536;13.468;2023-02-01T00:19:04;-1.20;99.90
29341;DHT22;16337;59.536;13.468;2023-02-01T00:21:30;-1.20;99.90
29341;DHT22;16337;59.536;13.468;2023-02-01T00:23:56;-1.20;99.90
29341;DHT22;16337;59.536;13.468;2023-02-01T00:26:35;-1.20;99.90
29341;DHT22;16337;59.536;13.468;2023-02-01T00:29:03;-1.20;99.90
29341;DHT22;16337;59.536;13.468;2023-02-01T00:31:30;-1.20;99.90
29341;DHT22;16337;59.536;13.468;2023-02-01T00:33:55;-1.20;99.90
29341;DHT22;16337;59.536;13.468;2023-02-01T00:36:21;-1.10;99.90
29341;DHT22;16337;59.536;13.468;2023-02-01T00:38:47;-1.10;99.90
29341;DHT22;16337;59.536;13.468;2023-02-01T00:41:18;-1.00;99.90
29341;DHT22;16337;59.536;13.468;2023-02-01T00:43:44;-1.00;99.90
29341;DHT22;16337;59.536;13.468;2023-02-01T00:46:11;-1.00;99.90
29341;DHT22;16337;59.536;13.468;2023-02-01T00:48:38;-1.00;99.90
29341;DHT22;16337;59.536;13.468;2023-02-01T00:51:10;-1.00;99.90
29341;DHT22;16337;59.536;13.468;2023-02-01T00:53:37;-1.00;99.90
29341;DHT22;16337;59.536;13.468;2023-02-01T00:56:03;-1.00;99.90
29341;DHT22;16337;59.536;13.468;2023-02-01T00:58:29;-1.00;99.90
29341;DHT22;16337;59.536;13.468;2023-02-01T01:03:37;-1.00;99.90
29341;DHT22;16337;59.536;13.468;2023-02-01T01:06:06;-1.00;99.90
29341;DHT22;16337;59.536;13.468;2023-02-01T01:08:33;-0.90;99.90
29341;DHT22;16337;59.536;13.468;2023-02-01T01:11:03;-0.90;99.90
29341;DHT22;16337;59.536;13.468;2023-02-01T01:13:29;-0.90;99.90
29341;DHT22;16337;59.536;13.468;2023-02-01T01:15:54;-0.90;99.90
29341;DHT22;16337;59.536;13.468;2023-02-01T01:18:20;-0.80;99.90
29341;DHT22;16337;59.536;13.468;2023-02-01T01:20:47;-0.80;99.90
29341;DHT22;16337;59.536;13.468;2023-02-01T01:23:14;-0.80;99.90
29341;DHT22;16337;59.536;13.468;2023-02-01T01:25:39;-0.80;99.90
29341;DHT22;16337;59.536;13.468;2023-02-01T01:28:06;-0.80;99.90
29341;DHT22;16337;59.536;13.468;2023-02-01T01:30:33;-0.90;99.90
29341;DHT22;16337;59.536;13.468;2023-02-01T01:32:59;-1.00;99.90
29341;DHT22;16337;59.536;13.468;2023-02-01T01:35:25;-1.00;99.90
29341;DHT22;16337;59.536;13.468;2023-02-01T01:37:51;-1.00;99.90
29341;DHT22;16337;59.536;13.468;2023-02-01T01:40:17;-1.10;99.90
29341;DHT22;16337;59.536;13.468;2023-02-01T01:42:44;-1.10;99.90
29341;DHT22;16337;59.536;13.468;2023-02-01T01:45:25;-1.10;99.90
29341;DHT22;16337;59.536;13.468;2023-02-01T01:48:00;-1.10;99.90
29341;DHT22;16337;59.536;13.468;2023-02-01T01:50:36;-1.20;99.90
29341;DHT22;16337;59.536;13.468;2023-02-01T01:53:05;-1.10;99.90
29341;DHT22;16337;59.536;13.468;2023-02-01T01:55:35;-1.00;99.90
29341;DHT22;16337;59.536;13.468;2023-02-01T01:58:09;-1.00;99.90
29341;DHT22;16337;59.536;13.468;2023-02-01T02:00:36;-1.00;99.90
29341;DHT22;16337;59.536;13.468;2023-02-01T02:03:18;-1.00;99.90
29341;DHT22;16337;59.536;13.468;2023-02-01T02:05:46;-1.00;99.90
29341;DHT22;16337;59.536;13.468;2023-02-01T02:08:13;-1.00;99.90
29341;DHT22;16337;59.536;13.468;2023-02-01T02:10:39;-1.00;99.90
29341;DHT22;16337;59.536;13.468;2023-02-01T02:13:23;-0.90;99.90
29341;DHT22;16337;59.536;13.468;2023-02-01T02:27:05;-0.90;99.90
29341;DHT22;16337;59.536;13.468;2023-02-01T02:30:00;-1.00;99.90
29341;DHT22;16337;59.536;13.468;2023-02-01T02:38:18;-1.00;99.90
29341;DHT22;16337;59.536;13.468;2023-02-01T02:43:44;-1.00;99.90
29341;DHT22;16337;59.536;13.468;2023-02-01T02:46:39;-1.10;99.90
29341;DHT22;16337;59.536;13.468;2023-02-01T02:49:42;-1.20;99.90
29341;DHT22;16337;59.536;13.468;2023-02-01T02:52:33;-1.30;99.90
29341;DHT22;16337;59.536;13.468;2023-02-01T02:55:21;-1.30;99.90
29341;DHT22;16337;59.536;13.468;2023-02-01T02:57:47;-1.40;99.90
29341;DHT22;16337;59.536;13.468;2023-02-01T03:00:32;-1.40;99.90
29341;DHT22;16337;59.536;13.468;2023-02-01T03:03:18;-1.40;99.90
29341;DHT22;16337;59.536;13.468;2023-02-01T03:06:02;-1.50;99.90
29341;DHT22;16337;59.536;13.468;2023-02-01T03:08:30;-1.50;99.90
29341;DHT22;16337;59.536;13.468;2023-02-01T03:11:08;-1.50;99.90
29341;DHT22;16337;59.536;13.468;2023-02-01T03:16:24;-1.40;99.90
29341;DHT22;16337;59.536;13.468;2023-02-01T03:23:58;-1.40;99.90
29341;DHT22;16337;59.536;13.468;2023-02-01T03:26:26;-1.40;99.90
29341;DHT22;16337;59.536;13.468;2023-02-01T03:28:57;-1.40;99.90
29341;DHT22;16337;59.536;13.468;2023-02-01T03:31:27;-1.30;99.90
29341;DHT22;16337;59.536;13.468;2023-02-01T03:33:54;-1.30;99.90
29341;DHT22;16337;59.536;13.468;2023-02-01T03:36:48;-1.30;99.90
29341;DHT22;16337;59.536;13.468;2023-02-01T03:39:25;-1.30;99.90
29341;DHT22;16337;59.536;13.468;2023-02-01T03:41:58;-1.20;99.90
29341;DHT22;16337;59.536;13.468;2023-02-01T03:44:53;-1.20;99.90
29341;DHT22;16337;59.536;13.468;2023-02-01T03:47:22;-1.30;99.90
29341;DHT22;16337;59.536;13.468;2023-02-01T03:49:54;-1.30;99.90
29341;DHT22;16337;59.536;13.468;2023-02-01T03:52:24;-1.30;99.90
29341;DHT22;16337;59.536;13.468;2023-02-01T03:54:52;-1.30;99.90
29341;DHT22;16337;59.536;13.468;2023-02-01T03:57:23;-1.30;99.90
29341;DHT22;16337;59.536;13.468;2023-02-01T03:59:50;-1.30;99.90
29341;DHT22;16337;59.536;13.468;2023-02-01T04:02:16;-1.30;99.90
29341;DHT22;16337;59.536;13.468;2023-02-01T04:04:42;-1.30;99.90
29341;DHT22;16337;59.536;13.468;2023-02-01T04:07:07;-1.30;99.90
29341;DHT22;16337;59.536;13.468;2023-02-01T04:09:33;-1.30;99.90
29341;DHT22;16337;59.536;13.468;2023-02-01T04:11:59;-1.30;99.90
29341;DHT22;16337;59.536;13.468;2023-02-01T04:14:25;-1.30;99.90
29341;DHT22;16337;59.536;13.468;2023-02-01T04:16:50;-1.30;99.90
29341;DHT22;16337;59.536;13.468;2023-02-01T04:19:16;-1.30;99.90
29341;DHT22;16337;59.536;13.468;2023-02-01T04:21:42;-1.30;99.90
29341;DHT22;16337;59.536;13.468;2023-02-01T04:24:08;-1.30;99.90
29341;DHT22;16337;59.536;13.468;2023-02-01T04:26:34;-1.30;99.90
29341;DHT22;16337;59.536;13.468;2023-02-01T04:28:59;-1.30;99.90
29341;DHT22;16337;59.536;13.468;2023-02-01T04:31:25;-1.40;99.90
29341;DHT22;16337;59.536;13.468;2023-02-01T04:33:52;-1.50;99.90
29341;DHT22;16337;59.536;13.468;2023-02-01T04:36:19;-1.50;99.90
29341;DHT22;16337;59.536;13.468;2023-02-01T04:38:51;-1.50;99.90
29341;DHT22;16337;59.536;13.468;2023-02-01T04:41:17;-1.50;99.90
29341;DHT22;16337;59.536;13.468;2023-02-01T04:43:47;-1.50;99.90
29341;DHT22;16337;59.536;13.468;2023-02-01T04:46:13;-1.50;99.90
29341;DHT22;16337;59.536;13.468;2023-02-01T04:48:39;-1.60;99.90
29341;DHT22;16337;59.536;13.468;2023-02-01T04:51:05;-1.60;99.90
29341;DHT22;16337;59.536;13.468;2023-02-01T04:53:31;-1.50;99.90
29341;DHT22;16337;59.536;13.468;2023-02-01T04:55:57;-1.50;99.90
29341;DHT22;16337;59.536;13.468;2023-02-01T04:58:23;-1.50;99.90
29341;DHT22;16337;59.536;13.468;2023-02-01T05:00:49;-1.40;99.90
29341;DHT22;16337;59.536;13.468;2023-02-01T05:03:15;-1.40;99.90
29341;DHT22;16337;59.536;13.468;2023-02-01T05:05:41;-1.30;99.90
29341;DHT22;16337;59.536;13.468;2023-02-01T05:08:08;-1.30;99.90
29341;DHT22;16337;59.536;13.468;2023-02-01T05:10:33;-1.20;99.90
29341;DHT22;16337;59.536;13.468;2023-02-01T05:12:59;-1.20;99.90
29341;DHT22;16337;59.536;13.468;2023-02-01T05:15:43;-1.20;99.90
29341;DHT22;16337;59.536;13.468;2023-02-01T05:18:09;-1.20;99.90
29341;DHT22;16337;59.536;13.468;2023-02-01T05:20:34;-1.20;99.90
29341;DHT22;16337;59.536;13.468;2023-02-01T05:23:00;-1.20;99.90
29341;DHT22;16337;59.536;13.468;2023-02-01T05:25:26;-1.10;99.90
29341;DHT22;16337;59.536;13.468;2023-02-01T05:27:53;-1.10;99.90
29341;DHT22;16337;59.536;13.468;2023-02-01T05:30:18;-1.10;99.90
29341;DHT22;16337;59.536;13.468;2023-02-01T05:32:44;-1.10;99.90
29341;DHT22;16337;59.536;13.468;2023-02-01T05:35:10;-1.10;99.90
29341;DHT22;16337;59.536;13.468;2023-02-01T05:37:36;-1.10;99.90
29341;DHT22;16337;59.536;13.468;2023-02-01T05:40:02;-1.10;99.90
29341;DHT22;16337;59.536;13.468;2023-02-01T05:42:27;-1.10;99.90
29341;DHT22;16337;59.536;13.468;2023-02-01T05:44:53;-1.10;99.90
29341;DHT22;16337;59.536;13.468;2023-02-01T05:47:19;-1.00;99.90
29341;DHT22;16337;59.536;13.468;2023-02-01T05:49:46;-1.10;99.90
29341;DHT22;16337;59.536;13.468;2023-02-01T05:52:11;-1.10;99.90
29341;DHT22;16337;59.536;13.468;2023-02-01T05:54:37;-1.00;99.90
29341;DHT22;16337;59.536;13.468;2023-02-01T05:57:03;-1.00;99.90
29341;DHT22;16337;59.536;13.468;2023-02-01T05:59:29;-1.00;99.90
29341;DHT22;16337;59.536;13.468;2023-02-01T06:01:54;-1.00;99.90
29341;DHT22;16337;59.536;13.468;2023-02-01T06:04:20;-1.00;99.90
29341;DHT22;16337;59.536;13.468;2023-02-01T06:06:46;-1.00;99.90
29341;DHT22;16337;59.536;13.468;2023-02-01T06:09:12;-1.00;99.90
29341;DHT22;16337;59.536;13.468;2023-02-01T06:11:38;-1.00;99.90
29341;DHT22;16337;59.536;13.468;2023-02-01T06:14:05;-0.90;99.90
29341;DHT22;16337;59.536;13.468;2023-02-01T06:16:33;-1.00;99.90
29341;DHT22;16337;59.536;13.468;2023-02-01T06:18:59;-1.00;99.90
29341;DHT22;16337;59.536;13.468;2023-02-01T06:21:25;-1.00;99.90
29341;DHT22;16337;59.536;13.468;2023-02-01T06:23:52;-1.00;99.90
29341;DHT22;16337;59.536;13.468;2023-02-01T06:26:18;-1.00;99.90
29341;DHT22;16337;59.536;13.468;2023-02-01T06:28:44;-1.00;99.90
29341;DHT22;16337;59.536;13.468;2023-02-01T06:31:10;-1.00;99.90
29341;DHT22;16337;59.536;13.468;2023-02-01T06:33:37;-1.10;99.90
29341;DHT22;16337;59.536;13.468;2023-02-01T06:36:05;-1.10;99.90
29341;DHT22;16337;59.536;13.468;2023-02-01T06:38:32;-1.10;99.90
29341;DHT22;16337;59.536;13.468;2023-02-01T06:41:00;-1.00;99.90
29341;DHT22;16337;59.536;13.468;2023-02-01T06:43:27;-1.00;99.90
29341;DHT22;16337;59.536;13.468;2023-02-01T06:45:53;-1.00;99.90
29341;DHT22;16337;59.536;13.468;2023-02-01T06:48:19;-1.00;99.90
29341;DHT22;16337;59.536;13.468;2023-02-01T06:50:45;-0.90;99.90
29341;DHT22;16337;59.536;13.468;2023-02-01T06:53:10;-0.90;99.90
29341;DHT22;16337;59.536;13.468;2023-02-01T06:55:36;-0.90;99.90
29341;DHT22;16337;59.536;13.468;2023-02-01T06:58:02;-0.90;99.90
29341;DHT22;16337;59.536;13.468;2023-02-01T07:00:28;-0.90;99.90
29341;DHT22;16337;59.536;13.468;2023-02-01T07:02:54;-0.90;99.90
29341;DHT22;16337;59.536;13.468;2023-02-01T07:05:20;-0.90;99.90
29341;DHT22;16337;59.536;13.468;2023-02-01T07:07:46;-0.90;99.90
29341;DHT22;16337;59.536;13.468;2023-02-01T07:10:13;-0.90;99.90
29341;DHT22;16337;59.536;13.468;2023-02-01T07:12:39;-1.00;99.90
29341;DHT22;16337;59.536;13.468;2023-02-01T07:15:05;-1.00;99.90
29341;DHT22;16337;59.536;13.468;2023-02-01T07:17:31;-1.10;99.90
29341;DHT22;16337;59.536;13.468;2023-02-01T07:19:57;-1.10;99.90
29341;DHT22;16337;59.536;13.468;2023-02-01T07:22:25;-1.00;99.90
29341;DHT22;16337;59.536;13.468;2023-02-01T07:24:51;-1.10;99.90
29341;DHT22;16337;59.536;13.468;2023-02-01T07:27:17;-1.10;99.90
29341;DHT22;16337;59.536;13.468;2023-02-01T07:29:42;-1.10;99.90
29341;DHT22;16337;59.536;13.468;2023-02-01T07:32:08;-1.10;99.90
29341;DHT22;16337;59.536;13.468;2023-02-01T07:34:34;-1.10;99.90
29341;DHT22;16337;59.536;13.468;2023-02-01T07:37:00;-1.10;99.90
29341;DHT22;16337;59.536;13.468;2023-02-01T07:39:26;-1.10;99.90
29341;DHT22;16337;59.536;13.468;2023-02-01T07:41:53;-1.10;99.90
29341;DHT22;16337;59.536;13.468;2023-02-01T07:44:19;-1.10;99.90
29341;DHT22;16337;59.536;13.468;2023-02-01T07:46:48;-1.00;99.90
29341;DHT22;16337;59.536;13.468;2023-02-01T07:49:14;-1.00;99.90
29341;DHT22;16337;59.536;13.468;2023-02-01T07:51:40;-1.00;99.90
29341;DHT22;16337;59.536;13.468;2023-02-01T07:54:06;-1.00;99.90
29341;DHT22;16337;59.536;13.468;2023-02-01T07:56:31;-1.00;99.90
29341;DHT22;16337;59.536;13.468;2023-02-01T07:58:57;-0.90;99.90
29341;DHT22;16337;59.536;13.468;2023-02-01T08:01:27;-0.90;99.90
29341;DHT22;16337;59.536;13.468;2023-02-01T08:04:02;-0.90;99.90
29341;DHT22;16337;59.536;13.468;2023-02-01T08:06:31;-0.80;99.90
29341;DHT22;16337;59.536;13.468;2023-02-01T08:08:57;-0.80;99.90
29341;DHT22;16337;59.536;13.468;2023-02-01T08:11:24;-0.70;99.90
29341;DHT22;16337;59.536;13.468;2023-02-01T08:13:50;-0.70;99.90
29341;DHT22;16337;59.536;13.468;2023-02-01T08:16:17;-0.70;99.90
29341;DHT22;16337;59.536;13.468;2023-02-01T08:18:44;-0.60;99.90
29341;DHT22;16337;59.536;13.468;2023-02-01T08:21:13;-0.60;99.90
29341;DHT22;16337;59.536;13.468;2023-02-01T08:23:40;-0.60;99.90
29341;DHT22;16337;59.536;13.468;2023-02-01T08:26:24;-0.60;99.90
29341;DHT22;16337;59.536;13.468;2023-02-01T08:28:56;-0.60;99.90
29341;DHT22;16337;59.536;13.468;2023-02-01T08:31:24;-0.60;99.90
29341;DHT22;16337;59.536;13.468;2023-02-01T08:33:56;-0.60;99.90
29341;DHT22;16337;59.536;13.468;2023-02-01T08:36:23;-0.60;99.90
29341;DHT22;16337;59.536;13.468;2023-02-01T08:38:49;-0.60;99.90
29341;DHT22;16337;59.536;13.468;2023-02-01T08:41:18;-0.60;99.90
29341;DHT22;16337;59.536;13.468;2023-02-01T08:43:45;-0.60;99.90
29341;DHT22;16337;59.536;13.468;2023-02-01T08:46:11;-0.60;99.90
29341;DHT22;16337;59.536;13.468;2023-02-01T08:48:38;-0.60;99.90
29341;DHT22;16337;59.536;13.468;2023-02-01T08:51:06;-0.60;99.90
29341;DHT22;16337;59.536;13.468;2023-02-01T08:53:32;-0.60;99.90
29341;DHT22;16337;59.536;13.468;2023-02-01T08:55:58;-0.50;99.90
29341;DHT22;16337;59.536;13.468;2023-02-01T08:58:24;-0.50;99.90
29341;DHT22;16337;59.536;13.468;2023-02-01T09:00:50;-0.50;99.90
29341;DHT22;16337;59.536;13.468;2023-02-01T09:03:16;-0.40;99.90
29341;DHT22;16337;59.536;13.468;2023-02-01T09:05:42;-0.50;99.90
29341;DHT22;16337;59.536;13.468;2023-02-01T09:08:08;-0.50;99.90
29341;DHT22;16337;59.536;13.468;2023-02-01T09:10:35;-0.50;99.90
29341;DHT22;16337;59.536;13.468;2023-02-01T09:13:01;-0.40;99.90
29341;DHT22;16337;59.536;13.468;2023-02-01T09:15:28;-0.50;99.90
29341;DHT22;16337;59.536;13.468;2023-02-01T09:17:54;-0.40;99.90
29341;DHT22;16337;59.536;13.468;2023-02-01T09:20:20;-0.40;99.90
29341;DHT22;16337;59.536;13.468;2023-02-01T09:22:50;-0.30;99.90
29341;DHT22;16337;59.536;13.468;2023-02-01T09:25:16;-0.40;99.90
29341;DHT22;16337;59.536;13.468;2023-02-01T09:27:42;-0.40;99.90
29341;DHT22;16337;59.536;13.468;2023-02-01T09:30:08;-0.40;99.90
29341;DHT22;16337;59.536;13.468;2023-02-01T09:32:35;-0.40;99.90
29341;DHT22;16337;59.536;13.468;2023-02-01T09:35:01;-0.40;99.90
29341;DHT22;16337;59.536;13.468;2023-02-01T09:37:27;-0.30;99.90
29341;DHT22;16337;59.536;13.468;2023-02-01T09:39:53;-0.30;99.90
29341;DHT22;16337;59.536;13.468;2023-02-01T09:45:16;-0.20;99.90
29341;DHT22;16337;59.536;13.468;2023-02-01T09:47:53;-0.10;99.90
29341;DHT22;16337;59.536;13.468;2023-02-01T09:50:27;-0.10;99.90
29341;DHT22;16337;59.536;13.468;2023-02-01T09:55:49;0.00;99.90
29341;DHT22;16337;59.536;13.468;2023-02-01T09:58:32;0.00;99.90
29341;DHT22;16337;59.536;13.468;2023-02-01T10:01:01;0.00;99.90
29341;DHT22;16337;59.536;13.468;2023-02-01T10:03:32;0.00;99.90
29341;DHT22;16337;59.536;13.468;2023-02-01T10:09:20;-0.10;99.90
29341;DHT22;16337;59.536;13.468;2023-02-01T10:26:17;-0.10;99.90
29341;DHT22;16337;59.536;13.468;2023-02-01T10:28:49;-0.10;99.90
29341;DHT22;16337;59.536;13.468;2023-02-01T10:31:19;0.00;99.90
29341;DHT22;16337;59.536;13.468;2023-02-01T10:33:49;0.00;99.90
29341;DHT22;16337;59.536;13.468;2023-02-01T10:36:32;0.00;99.90
29341;DHT22;16337;59.536;13.468;2023-02-01T10:39:03;0.00;99.90
29341;DHT22;16337;59.536;13.468;2023-02-01T10:41:38;0.00;99.90
29341;DHT22;16337;59.536;13.468;2023-02-01T10:44:34;0.00;99.90
29341;DHT22;16337;59.536;13.468;2023-02-01T10:46:59;0.10;99.90
29341;DHT22;16337;59.536;13.468;2023-02-01T10:49:52;0.10;99.90
29341;DHT22;16337;59.536;13.468;2023-02-01T10:52:48;0.20;99.90
29341;DHT22;16337;59.536;13.468;2023-02-01T10:55:29;0.20;99.90
29341;DHT22;16337;59.536;13.468;2023-02-01T10:57:58;0.30;99.90
29341;DHT22;16337;59.536;13.468;2023-02-01T11:00:25;0.30;99.90
29341;DHT22;16337;59.536;13.468;2023-02-01T11:02:51;0.30;99.90
29341;DHT22;16337;59.536;13.468;2023-02-01T11:05:17;0.30;99.90
29341;DHT22;16337;59.536;13.468;2023-02-01T11:07:49;0.30;99.90
29341;DHT22;16337;59.536;13.468;2023-02-01T11:10:40;0.30;99.90
29341;DHT22;16337;59.536;13.468;2023-02-01T11:13:17;0.30;99.90
29341;DHT22;16337;59.536;13.468;2023-02-01T11:15:54;0.30;99.90
29341;DHT22;16337;59.536;13.468;2023-02-01T11:18:26;0.30;99.90
29341;DHT22;16337;59.536;13.468;2023-02-01T11:20:53;0.20;99.90
29341;DHT22;16337;59.536;13.468;2023-02-01T11:23:23;0.30;99.90
29341;DHT22;16337;59.536;13.468;2023-02-01T11:28:54;0.30;99.90
29341;DHT22;16337;59.536;13.468;2023-02-01T11:31:32;0.20;99.90
29341;DHT22;16337;59.536;13.468;2023-02-01T11:36:36;0.20;99.90
29341;DHT22;16337;59.536;13.468;2023-02-01T11:44:21;0.20;99.90
29341;DHT22;16337;59.536;13.468;2023-02-01T11:46:47;0.20;99.90
29341;DHT22;16337;59.536;13.468;2023-02-01T11:49:21;0.10;99.90
29341;DHT22;16337;59.536;13.468;2023-02-01T11:52:09;0.20;99.90
29341;DHT22;16337;59.536;13.468;2023-02-01T11:54:58;0.20;99.90
29341;DHT22;16337;59.536;13.468;2023-02-01T12:03:01;0.10;99.90
29341;DHT22;16337;59.536;13.468;2023-02-01T12:12:22;-0.10;99.90
29341;DHT22;16337;59.536;13.468;2023-02-01T12:15:12;0.00;99.90
29341;DHT22;16337;59.536;13.468;2023-02-01T12:22:59;0.10;99.90
29341;DHT22;16337;59.536;13.468;2023-02-01T12:25:56;0.10;99.90
29341;DHT22;16337;59.536;13.468;2023-02-01T12:37:12;0.10;99.90
29341;DHT22;16337;59.536;13.468;2023-02-01T12:42:42;-0.10;99.90
29341;DHT22;16337;59.536;13.468;2023-02-01T12:48:00;-0.20;99.90
29341;DHT22;16337;59.536;13.468;2023-02-01T12:50:35;-0.30;99.90
29341;DHT22;16337;59.536;13.468;2023-02-01T12:53:23;-0.40;99.90
29341;DHT22;16337;59.536;13.468;2023-02-01T12:55:53;-0.50;99.90
29341;DHT22;16337;59.536;13.468;2023-02-01T13:01:20;-0.50;99.90
29341;DHT22;16337;59.536;13.468;2023-02-01T13:04:12;-0.50;99.90
29341;DHT22;16337;59.536;13.468;2023-02-01T13:06:47;-0.50;99.90
29341;DHT22;16337;59.536;13.468;2023-02-01T13:11:49;-0.60;99.90
29341;DHT22;16337;59.536;13.468;2023-02-01T13:17:00;-0.60;99.90
29341;DHT22;16337;59.536;13.468;2023-02-01T13:19:45;-0.60;99.90
29341;DHT22;16337;59.536;13.468;2023-02-01T13:22:36;-0.60;99.90
29341;DHT22;16337;59.536;13.468;2023-02-01T13:25:16;-0.50;99.90
29341;DHT22;16337;59.536;13.468;2023-02-01T13:27:43;-0.60;99.90
29341;DHT22;16337;59.536;13.468;2023-02-01T13:43:43;-0.60;99.90
29341;DHT22;16337;59.536;13.468;2023-02-01T13:46:11;-0.60;99.90
29341;DHT22;16337;59.536;13.468;2023-02-01T13:49:02;-0.60;99.90
29341;DHT22;16337;59.536;13.468;2023-02-01T13:51:49;-0.60;99.90
29341;DHT22;16337;59.536;13.468;2023-02-01T13:56:57;-0.60;99.90
29341;DHT22;16337;59.536;13.468;2023-02-01T13:59:49;-0.70;99.90
29341;DHT22;16337;59.536;13.468;2023-02-01T14:05:10;-0.70;99.90
29341;DHT22;16337;59.536;13.468;2023-02-01T14:07:36;-0.80;99.90
29341;DHT22;16337;59.536;13.468;2023-02-01T14:21:33;-0.80;99.90
29341;DHT22;16337;59.536;13.468;2023-02-01T14:24:17;-0.90;99.90
29341;DHT22;16337;59.536;13.468;2023-02-01T14:26:47;-0.90;99.90
29341;DHT22;16337;59.536;13.468;2023-02-01T14:36:57;-1.10;99.90
29341;DHT22;16337;59.536;13.468;2023-02-01T14:39:25;-1.10;99.90
29341;DHT22;16337;59.536;13.468;2023-02-01T14:42:02;-1.20;99.90
29341;DHT22;16337;59.536;13.468;2023-02-01T14:44:34;-1.20;99.90
29341;DHT22;16337;59.536;13.468;2023-02-01T14:52:28;-1.40;99.90
29341;DHT22;16337;59.536;13.468;2023-02-01T14:54:57;-1.40;99.90
29341;DHT22;16337;59.536;13.468;2023-02-01T14:57:27;-1.40;99.90
29341;DHT22;16337;59.536;13.468;2023-02-01T15:00:01;-1.50;99.90
29341;DHT22;16337;59.536;13.468;2023-02-01T15:02:35;-1.50;99.90
29341;DHT22;16337;59.536;13.468;2023-02-01T15:05:02;-1.50;99.90
29341;DHT22;16337;59.536;13.468;2023-02-01T15:07:40;-1.50;99.90
29341;DHT22;16337;59.536;13.468;2023-02-01T15:10:06;-1.50;99.90
29341;DHT22;16337;59.536;13.468;2023-02-01T15:12:40;-1.50;99.90
29341;DHT22;16337;59.536;13.468;2023-02-01T15:15:32;-1.60;99.90
29341;DHT22;16337;59.536;13.468;2023-02-01T15:18:04;-1.60;99.90
29341;DHT22;16337;59.536;13.468;2023-02-01T15:20:32;-1.70;99.90
29341;DHT22;16337;59.536;13.468;2023-02-01T15:23:00;-1.70;99.90
29341;DHT22;16337;59.536;13.468;2023-02-01T15:25:32;-1.70;99.90
29341;DHT22;16337;59.536;13.468;2023-02-01T15:27:58;-1.60;99.90
29341;DHT22;16337;59.536;13.468;2023-02-01T15:30:32;-1.70;99.90
29341;DHT22;16337;59.536;13.468;2023-02-01T15:33:27;-1.70;99.90
29341;DHT22;16337;59.536;13.468;2023-02-01T15:35:55;-1.80;99.90
29341;DHT22;16337;59.536;13.468;2023-02-01T15:38:36;-1.80;99.90
29341;DHT22;16337;59.536;13.468;2023-02-01T15:41:14;-1.80;99.90
29341;DHT22;16337;59.536;13.468;2023-02-01T15:43:43;-1.80;99.90
29341;DHT22;16337;59.536;13.468;2023-02-01T15:46:14;-1.80;99.90
29341;DHT22;16337;59.536;13.468;2023-02-01T15:48:46;-1.80;99.90
29341;DHT22;16337;59.536;13.468;2023-02-01T15:51:24;-1.80;99.90
29341;DHT22;16337;59.536;13.468;2023-02-01T15:53:56;-1.80;99.90
29341;DHT22;16337;59.536;13.468;2023-02-01T15:56:55;-1.80;99.90
29341;DHT22;16337;59.536;13.468;2023-02-01T15:59:24;-1.80;99.90
29341;DHT22;16337;59.536;13.468;2023-02-01T16:01:50;-1.80;99.90
29341;DHT22;16337;59.536;13.468;2023-02-01T16:07:01;-1.80;99.90
29341;DHT22;16337;59.536;13.468;2023-02-01T16:09:40;-1.80;99.90
29341;DHT22;16337;59.536;13.468;2023-02-01T16:12:29;-1.80;99.90
29341;DHT22;16337;59.536;13.468;2023-02-01T16:14:55;-1.80;99.90
29341;DHT22;16337;59.536;13.468;2023-02-01T16:17:21;-1.80;99.90
29341;DHT22;16337;59.536;13.468;2023-02-01T16:19:53;-1.90;99.90
29341;DHT22;16337;59.536;13.468;2023-02-01T16:22:19;-1.90;99.90
29341;DHT22;16337;59.536;13.468;2023-02-01T16:24:44;-1.90;99.90
29341;DHT22;16337;59.536;13.468;2023-02-01T16:27:10;-1.90;99.90
29341;DHT22;16337;59.536;13.468;2023-02-01T16:29:36;-1.80;99.90
29341;DHT22;16337;59.536;13.468;2023-02-01T16:32:01;-1.80;99.90
29341;DHT22;16337;59.536;13.468;2023-02-01T16:34:27;-1.90;99.90
29341;DHT22;16337;59.536;13.468;2023-02-01T16:36:53;-1.80;99.90
29341;DHT22;16337;59.536;13.468;2023-02-01T16:39:22;-1.80;99.90
29341;DHT22;16337;59.536;13.468;2023-02-01T16:41:49;-1.80;99.90
29341;DHT22;16337;59.536;13.468;2023-02-01T16:44:14;-1.80;99.90
29341;DHT22;16337;59.536;13.468;2023-02-01T16:46:42;-1.80;99.90
29341;DHT22;16337;59.536;13.468;2023-02-01T16:49:23;-1.80;99.90
29341;DHT22;16337;59.536;13.468;2023-02-01T16:51:51;-1.80;99.90
29341;DHT22;16337;59.536;13.468;2023-02-01T16:54:20;-1.80;99.90
29341;DHT22;16337;59.536;13.468;2023-02-01T16:56:47;-1.80;99.90
29341;DHT22;16337;59.536;13.468;2023-02-01T16:59:13;-1.80;99.90
29341;DHT22;16337;59.536;13.468;2023-02-01T17:01:40;-1.80;99.90
29341;DHT22;16337;59.536;13.468;2023-02-01T17:04:08;-1.90;99.90
29341;DHT22;16337;59.536;13.468;2023-02-01T17:06:36;-1.90;99.90
29341;DHT22;16337;59.536;13.468;2023-02-01T17:09:02;-1.80;99.90
29341;DHT22;16337;59.536;13.468;2023-02-01T17:11:29;-1.80;99.90
29341;DHT22;16337;59.536;13.468;2023-02-01T17:14:00;-1.80;99.90
29341;DHT22;16337;59.536;13.468;2023-02-01T17:16:29;-1.80;99.90
29341;DHT22;16337;59.536;13.468;2023-02-01T17:18:58;-1.80;99.90
29341;DHT22;16337;59.536;13.468;2023-02-01T17:21:26;-1.80;99.90
29341;DHT22;16337;59.536;13.468;2023-02-01T17:23:53;-1.80;99.90
29341;DHT22;16337;59.536;13.468;2023-02-01T17:26:20;-1.80;99.90
29341;DHT22;16337;59.536;13.468;2023-02-01T17:28:46;-1.90;99.90
29341;DHT22;16337;59.536;13.468;2023-02-01T17:31:13;-1.90;99.90
29341;DHT22;16337;59.536;13.468;2023-02-01T17:33:43;-1.90;99.90
29341;DHT22;16337;59.536;13.468;2023-02-01T17:36:16;-1.90;99.90
29341;DHT22;16337;59.536;13.468;2023-02-01T17:38:42;-1.90;99.90
29341;DHT22;16337;59.536;13.468;2023-02-01T17:41:10;-1.90;99.90
29341;DHT22;16337;59.536;13.468;2023-02-01T17:43:36;-2.00;99.90
29341;DHT22;16337;59.536;13.468;2023-02-01T17:46:12;-2.00;99.90
29341;DHT22;16337;59.536;13.468;2023-02-01T17:48:39;-1.90;99.90
29341;DHT22;16337;59.536;13.468;2023-02-01T17:51:12;-1.90;99.90
29341;DHT22;16337;59.536;13.468;2023-02-01T17:53:39;-1.90;99.90
29341;DHT22;16337;59.536;13.468;2023-02-01T17:56:05;-1.80;99.90
29341;DHT22;16337;59.536;13.468;2023-02-01T17:58:34;-1.80;99.90
29341;DHT22;16337;59.536;13.468;2023-02-01T18:00:59;-1.80;99.90
29341;DHT22;16337;59.536;13.468;2023-02-01T18:03:28;-1.80;99.90
29341;DHT22;16337;59.536;13.468;2023-02-01T18:05:56;-1.90;99.90
29341;DHT22;16337;59.536;13.468;2023-02-01T18:08:26;-2.00;99.90